Time;durP1;ratioP1;P1;durP2;ratioP2;P2;SDS_P1;SDS_P2;PMS_P1;PMS_P2;Temp;Humidity;BMP_temperature;BMP_pressure;BME280_temperature;BME280_humidity;BME280_pressure;Samples;Min_cycle;Max_cycle;Signal;HPM_P1;HPM_P2
2022/03/31 00:01:15;;;;;;;31.33;19.92;;;;;;;4.50;78.16;99008.97;4996731;28;20033;-77
2022/03/31 00:03:40;;;;;;;26.15;19.15;;;;;;;4.46;78.57;98995.03;5012984;28;20029;-78
2022/03/31 00:06:08;;;;;;;27.58;18.67;;;;;;;4.51;78.53;98997.22;5011775;28;20124;-78
2022/03/31 00:08:35;;;;;;;27.50;17.90;;;;;;;4.53;78.24;99005.22;4996336;28;20026;-78
2022/03/31 00:11:01;;;;;;;24.02;17.58;;;;;;;4.53;78.10;99000.38;5012764;28;20034;-78
2022/03/31 00:13:29;;;;;;;27.30;18.80;;;;;;;4.53;77.99;98993.94;5013800;28;20022;-77
2022/03/31 00:15:58;;;;;;;24.75;17.50;;;;;;;4.49;78.51;98990.50;4996681;28;20046;-78
2022/03/31 00:18:25;;;;;;;26.42;18.05;;;;;;;4.48;78.29;98997.41;4996838;28;20038;-76
2022/03/31 00:20:52;;;;;;;25.60;17.88;;;;;;;4.46;78.12;98994.25;4980174;28;20045;-78
2022/03/31 00:23:19;;;;;;;26.00;18.27;;;;;;;4.44;78.53;99000.34;4996626;28;20046;-76
2022/03/31 00:25:45;;;;;;;28.77;19.50;;;;;;;4.45;78.18;99004.75;5014545;28;20387;-76
2022/03/31 00:28:10;;;;;;;24.70;17.40;;;;;;;4.46;78.76;98999.88;4996274;28;20459;-77
2022/03/31 00:30:37;;;;;;;27.40;18.70;;;;;;;4.47;78.68;98998.66;5012816;28;20029;-79
2022/03/31 00:33:04;;;;;;;25.83;18.40;;;;;;;4.48;78.86;99000.22;5012197;28;20026;-78
2022/03/31 00:35:40;;;;;;;23.75;18.83;;;;;;;4.48;78.93;98995.38;5012735;28;20398;-75
2022/03/31 00:38:06;;;;;;;28.02;19.40;;;;;;;4.52;77.95;98998.81;5012564;28;20026;-77
2022/03/31 00:40:32;;;;;;;29.23;20.48;;;;;;;4.53;77.34;98993.94;5012895;28;20079;-77
2022/03/31 00:43:03;;;;;;;29.63;20.25;;;;;;;4.39;78.40;98972.78;5011380;28;20038;-77
2022/03/31 00:45:32;;;;;;;28.92;20.00;;;;;;;4.50;78.00;98992.84;5012880;28;20077;-77
2022/03/31 00:47:59;;;;;;;28.08;20.85;;;;;;;4.48;77.74;98997.41;5011381;28;20033;-78
2022/03/31 00:50:27;;;;;;;26.60;19.40;;;;;;;4.45;77.87;98995.50;5013052;28;20032;-79
2022/03/31 00:53:02;;;;;;;28.05;18.92;;;;;;;4.43;77.81;98992.38;5014335;28;20028;-77
2022/03/31 00:55:29;;;;;;;25.30;19.23;;;;;;;4.40;77.81;98990.50;5014693;28;20033;-76
2022/03/31 00:57:55;;;;;;;27.58;20.30;;;;;;;4.38;78.35;98996.63;5014721;28;20104;-76
2022/03/31 01:00:21;;;;;;;28.08;20.33;;;;;;;4.40;77.72;98988.44;5013810;28;20034;-77
2022/03/31 01:02:46;;;;;;;25.73;19.50;;;;;;;4.35;78.33;98987.03;5012325;28;20044;-78
2022/03/31 01:05:14;;;;;;;28.80;20.60;;;;;;;4.33;78.42;98992.38;5014443;28;20101;-77
2022/03/31 01:07:41;;;;;;;30.30;21.35;;;;;;;4.32;77.75;98988.00;5013142;28;20482;-77
2022/03/31 01:10:08;;;;;;;29.52;20.02;;;;;;;4.34;78.02;98993.19;5015785;28;20087;-77
2022/03/31 01:12:42;;;;;;;29.17;20.63;;;;;;;4.32;78.60;98987.22;5014685;28;20088;-77
2022/03/31 01:15:14;;;;;;;31.08;21.23;;;;;;;4.32;78.73;98993.63;5013361;28;20087;-76
2022/03/31 01:17:42;;;;;;;29.35;20.58;;;;;;;4.33;79.00;98986.75;5012091;28;20032;-77
2022/03/31 01:20:12;;;;;;;28.90;20.40;;;;;;;4.30;79.29;98990.50;4996080;28;20034;-77
2022/03/31 01:22:38;;;;;;;32.10;22.33;;;;;;;4.32;79.36;98990.03;5018740;28;20540;-76
2022/03/31 01:25:06;;;;;;;27.63;19.50;;;;;;;4.32;79.36;98993.63;5018730;28;20029;-76
2022/03/31 01:27:36;;;;;;;32.25;21.33;;;;;;;4.35;79.11;98983.44;5035292;28;20022;-77
2022/03/31 01:30:05;;;;;;;31.42;21.40;;;;;;;4.36;79.16;98979.38;5018702;28;20517;-76
2022/03/31 01:32:30;;;;;;;32.95;21.15;;;;;;;4.36;78.37;98979.38;5018838;28;20037;-77
2022/03/31 01:34:57;;;;;;;28.73;20.92;;;;;;;4.38;78.63;98976.88;5018718;28;20036;-77
2022/03/31 01:37:24;;;;;;;30.38;20.58;;;;;;;4.35;78.74;98975.00;5052396;28;20151;-77
2022/03/31 01:39:49;;;;;;;30.05;20.92;;;;;;;4.39;78.03;98981.25;5034763;28;20038;-76
2022/03/31 01:42:15;;;;;;;30.20;21.48;;;;;;;4.39;78.29;98986.13;5019347;28;20041;-76
2022/03/31 01:44:40;;;;;;;29.05;20.45;;;;;;;4.39;77.92;98967.16;5035861;28;20367;-77
2022/03/31 01:47:15;;;;;;;31.80;20.60;;;;;;;4.42;78.12;98971.09;5037183;28;20065;-78
2022/03/31 01:49:41;;;;;;;29.92;21.55;;;;;;;4.38;78.48;98974.06;5052206;28;20033;-77
2022/03/31 01:52:07;;;;;;;32.03;22.40;;;;;;;4.43;78.31;98978.28;5016938;28;20091;-76
2022/03/31 01:54:34;;;;;;;31.88;22.02;;;;;;;4.42;78.42;98985.19;5018670;28;20040;-77
2022/03/31 01:57:08;;;;;;;29.70;22.40;;;;;;;4.43;77.92;98976.25;5034651;28;20033;-77
2022/03/31 01:59:42;;;;;;;32.20;21.70;;;;;;;4.44;78.66;98974.22;5018167;28;20030;-76
2022/03/31 02:02:12;;;;;;;31.70;21.92;;;;;;;4.47;78.38;98973.28;5032982;28;20458;-77
2022/03/31 02:04:46;;;;;;;33.40;21.23;;;;;;;4.46;78.04;98978.13;5040568;28;20033;-77
2022/03/31 02:07:13;;;;;;;33.70;22.02;;;;;;;4.50;77.87;98983.59;5025602;28;20116;-76
2022/03/31 02:09:39;;;;;;;35.55;22.35;;;;;;;4.49;78.09;98979.25;5040710;28;20056;-76
2022/03/31 02:12:06;;;;;;;32.97;22.38;;;;;;;4.50;78.35;98986.41;5020521;28;20029;-77
2022/03/31 02:14:37;;;;;;;34.20;22.48;;;;;;;4.48;78.02;98981.28;5053200;28;20030;-77
2022/03/31 02:17:08;;;;;;;31.27;21.80;;;;;;;4.53;78.45;98991.13;5039251;28;20029;-77
2022/03/31 02:19:54;;;;;;;34.42;22.88;;;;;;;4.53;78.26;98989.09;5007886;28;20030;-77
2022/03/31 02:22:22;;;;;;;33.00;21.42;;;;;;;4.55;77.79;98980.16;5064187;28;20042;-76
2022/03/31 02:24:48;;;;;;;35.75;22.50;;;;;;;4.56;78.11;98987.38;5035753;28;20057;-76
2022/03/31 02:27:15;;;;;;;33.55;23.85;;;;;;;4.55;78.10;98974.50;5036190;28;20014;-75
2022/03/31 02:29:41;;;;;;;33.47;22.95;;;;;;;4.58;78.26;98979.22;5025237;28;20026;-77
2022/03/31 02:32:07;;;;;;;32.20;22.67;;;;;;;4.63;78.35;98990.66;5015903;28;20080;-76
2022/03/31 02:34:34;;;;;;;33.88;22.80;;;;;;;4.62;77.62;98986.28;5013879;28;20029;-76
2022/03/31 02:37:02;;;;;;;31.15;22.30;;;;;;;4.66;77.92;98984.06;4997814;28;20033;-76
2022/03/31 02:39:29;;;;;;;31.17;21.80;;;;;;;4.64;77.77;98977.31;5015798;28;20527;-76
2022/03/31 02:42:09;;;;;;;33.10;22.70;;;;;;;4.66;78.14;98980.47;5015626;28;20049;-77
2022/03/31 02:44:36;;;;;;;39.45;21.48;;;;;;;4.65;77.71;98978.91;4997822;28;20500;-76
2022/03/31 02:47:03;;;;;;;34.45;21.42;;;;;;;4.67;77.36;98980.00;5015404;28;20025;-76
2022/03/31 02:49:29;;;;;;;32.30;19.83;;;;;;;4.68;77.13;98973.13;5014905;28;20419;-77
2022/03/31 02:51:55;;;;;;;29.23;20.90;;;;;;;4.71;76.85;98977.00;5014891;28;20072;-77
2022/03/31 02:57:07;;;;;;;30.90;20.67;;;;;;;4.61;76.80;98967.00;5014749;28;20112;-77
2022/03/31 02:59:33;;;;;;;35.25;21.30;;;;;;;4.61;77.35;98972.63;5013906;28;20042;-77
2022/03/31 03:01:58;;;;;;;32.70;21.50;;;;;;;4.61;77.47;98967.00;5014169;28;20057;-77
2022/03/31 03:04:24;;;;;;;27.40;19.98;;;;;;;4.62;76.46;98962.94;5015657;28;20030;-77
2022/03/31 03:06:50;;;;;;;32.65;20.45;;;;;;;4.61;76.87;98967.78;5015446;28;20445;-76
2022/03/31 03:09:16;;;;;;;31.85;19.73;;;;;;;4.64;76.71;98968.84;5013854;28;20467;-77
2022/03/31 03:11:41;;;;;;;31.65;19.25;;;;;;;4.59;76.46;98963.84;5015299;28;20080;-77
2022/03/31 03:14:09;;;;;;;26.98;19.58;;;;;;;4.57;76.51;98969.97;5013659;28;20418;-77
2022/03/31 03:16:35;;;;;;;28.58;18.83;;;;;;;4.63;76.25;98965.28;4997695;28;20034;-77
2022/03/31 03:19:03;;;;;;;29.42;19.13;;;;;;;4.55;76.94;98964.03;5013916;28;20429;-76
2022/03/31 03:21:29;;;;;;;30.38;18.73;;;;;;;4.53;76.67;98965.75;4996611;28;20103;-78
2022/03/31 03:23:55;;;;;;;29.20;19.80;;;;;;;4.53;77.35;98965.75;5014429;28;20049;-77
2022/03/31 03:26:22;;;;;;;29.92;19.25;;;;;;;4.50;76.60;98964.66;5013409;28;20061;-78
2022/03/31 03:28:49;;;;;;;30.20;20.33;;;;;;;4.56;77.31;98962.00;5014507;28;20045;-76
2022/03/31 03:31:16;;;;;;;33.17;21.83;;;;;;;4.55;77.09;98968.88;4996764;28;20033;-76
2022/03/31 03:33:43;;;;;;;32.55;22.23;;;;;;;4.57;76.55;98958.72;5013423;28;20026;-77
2022/03/31 03:36:12;;;;;;;33.47;21.58;;;;;;;4.60;76.70;98965.44;5014669;28;20059;-77
2022/03/31 03:38:42;;;;;;;29.88;19.98;;;;;;;4.55;76.91;98951.97;5013265;28;20466;-77
2022/03/31 03:41:17;;;;;;;34.70;22.50;;;;;;;4.54;76.93;98956.81;5046210;28;20021;-75
2022/03/31 03:43:43;;;;;;;32.30;20.92;;;;;;;4.55;76.42;98963.25;5014492;28;20032;-75
2022/03/31 03:46:09;;;;;;;33.25;20.98;;;;;;;4.54;77.26;98964.50;4996770;28;20033;-77
2022/03/31 03:48:35;;;;;;;34.20;21.33;;;;;;;4.58;76.94;98973.59;4997112;28;20053;-77
2022/03/31 03:51:00;;;;;;;30.73;20.10;;;;;;;4.57;76.15;98969.97;5013284;28;20038;-77
2022/03/31 03:53:27;;;;;;;34.42;20.52;;;;;;;4.58;76.14;98973.59;4997613;28;20033;-79
2022/03/31 03:55:53;;;;;;;30.05;19.77;;;;;;;4.49;75.77;98980.00;4993463;28;20033;-77
2022/03/31 03:58:20;;;;;;;30.88;20.88;;;;;;;4.47;76.40;98976.09;5012842;28;20117;-77
2022/03/31 04:00:46;;;;;;;26.05;18.35;;;;;;;4.45;76.03;98975.78;5012886;28;20044;-77
2022/03/31 04:03:12;;;;;;;31.08;19.10;;;;;;;4.42;75.77;98974.69;5012604;28;20116;-77
2022/03/31 04:05:39;;;;;;;28.90;18.60;;;;;;;4.40;75.95;98977.19;5013977;28;20034;-77
2022/03/31 04:08:06;;;;;;;30.88;21.10;;;;;;;4.35;75.81;98961.69;5013827;28;20030;-76
2022/03/31 04:10:35;;;;;;;29.27;19.67;;;;;;;4.29;76.06;98963.56;5012569;28;20111;-77
2022/03/31 04:13:00;;;;;;;28.55;18.63;;;;;;;4.25;76.45;98962.94;5013965;28;20030;-77
2022/03/31 04:15:28;;;;;;;28.35;18.90;;;;;;;4.37;76.30;98974.53;4996072;28;20113;-78
2022/03/31 04:17:56;;;;;;;27.77;19.95;;;;;;;4.43;76.20;98969.84;5012809;28;20022;-76
2022/03/31 04:20:22;;;;;;;29.83;19.85;;;;;;;4.38;75.19;98973.28;5014698;28;20037;-77
2022/03/31 04:22:48;;;;;;;25.52;17.85;;;;;;;4.30;75.94;98982.03;5048551;28;20091;-76
2022/03/31 04:25:13;;;;;;;33.65;21.13;;;;;;;4.32;75.48;98982.38;5033388;28;20053;-78
2022/03/31 04:27:47;;;;;;;35.30;21.58;;;;;;;4.27;75.68;98982.97;5016152;28;20104;-78
2022/03/31 04:30:18;;;;;;;29.65;19.42;;;;;;;4.26;75.56;98991.91;5015536;28;20030;-77
2022/03/31 04:32:45;;;;;;;29.67;20.10;;;;;;;4.06;75.86;98958.53;5032674;28;20033;-78
2022/03/31 04:35:13;;;;;;;29.98;19.90;;;;;;;4.26;75.73;98986.25;5033409;28;20033;-77
2022/03/31 04:37:40;;;;;;;29.35;19.15;;;;;;;4.32;75.10;98993.63;4983105;28;20033;-77
2022/03/31 04:40:08;;;;;;;34.17;20.40;;;;;;;4.24;75.45;98995.19;5017079;28;20034;-78
2022/03/31 04:42:35;;;;;;;31.92;22.65;;;;;;;4.22;75.65;98989.25;4995680;28;20037;-77
2022/03/31 04:45:03;;;;;;;27.73;19.27;;;;;;;4.17;75.79;98995.50;4998049;28;20114;-76
2022/03/31 04:47:31;;;;;;;30.77;20.65;;;;;;;4.15;76.16;98991.56;4982610;28;20044;-80
2022/03/31 04:49:58;;;;;;;26.75;19.85;;;;;;;4.18;76.24;98996.28;4981306;28;20087;-78
2022/03/31 04:52:24;;;;;;;28.27;20.05;;;;;;;3.99;76.02;98966.53;4980813;28;20037;-78
2022/03/31 04:54:51;;;;;;;28.67;18.83;;;;;;;4.20;76.37;98994.56;4998837;28;20026;-78
2022/03/31 04:57:18;;;;;;;27.92;19.52;;;;;;;4.22;75.45;98992.06;5007734;28;20052;-77
2022/03/31 04:59:45;;;;;;;31.25;19.83;;;;;;;4.21;76.56;98992.53;4986633;28;20041;-77
2022/03/31 05:02:12;;;;;;;33.53;21.35;;;;;;;4.20;76.08;98988.13;5019982;28;20394;-77
2022/03/31 05:04:37;;;;;;;34.58;22.55;;;;;;;4.24;76.51;98989.53;5019645;28;20048;-76
2022/03/31 05:07:04;;;;;;;33.47;22.45;;;;;;;4.22;76.70;98985.63;5019727;28;20425;-77
2022/03/31 05:09:29;;;;;;;30.95;22.55;;;;;;;4.26;77.10;98995.50;5022878;28;20056;-77
2022/03/31 05:11:57;;;;;;;32.47;21.73;;;;;;;4.23;76.62;98993.63;5039661;28;20037;-78
2022/03/31 05:14:23;;;;;;;35.03;22.30;;;;;;;4.28;76.61;98995.81;5039108;28;20037;-78
2022/03/31 05:16:50;;;;;;;35.72;22.70;;;;;;;4.27;76.38;98993.47;5005455;28;20070;-77
2022/03/31 05:19:15;;;;;;;33.28;22.02;;;;;;;4.10;76.23;98976.06;5039733;28;20033;-77
2022/03/31 05:21:43;;;;;;;35.65;22.08;;;;;;;4.27;76.26;99004.75;5017550;28;20053;-78
2022/03/31 05:24:09;;;;;;;33.95;22.42;;;;;;;4.29;76.67;99007.88;5019138;28;20022;-78
2022/03/31 05:26:35;;;;;;;34.30;21.77;;;;;;;4.32;75.89;99006.94;5017739;28;20042;-76
2022/03/31 05:29:02;;;;;;;32.33;21.52;;;;;;;4.34;75.84;99001.63;5014275;28;20037;-75
2022/03/31 05:31:37;;;;;;;34.00;21.58;;;;;;;4.32;76.32;99002.09;5019144;28;20501;-75
2022/03/31 05:34:02;;;;;;;39.03;22.77;;;;;;;4.37;75.86;99011.94;5017852;28;20482;-76
2022/03/31 05:36:29;;;;;;;31.40;20.63;;;;;;;4.40;75.70;99013.03;5031729;28;20030;-74
2022/03/31 05:38:56;;;;;;;31.08;20.65;;;;;;;4.33;75.73;99009.28;5014172;28;20040;-74
2022/03/31 05:41:23;;;;;;;28.48;20.45;;;;;;;4.37;75.09;99009.13;5016202;28;20030;-75
2022/03/31 05:43:48;;;;;;;28.85;20.35;;;;;;;4.38;75.70;99009.91;5030712;28;20032;-75
2022/03/31 05:46:14;;;;;;;31.42;20.35;;;;;;;4.38;75.94;99010.72;5016423;28;20332;-75
2022/03/31 05:48:39;;;;;;;33.80;19.45;;;;;;;4.45;75.52;99009.59;5015963;28;20053;-75
2022/03/31 05:51:07;;;;;;;31.05;19.40;;;;;;;4.35;74.67;98989.06;5015988;28;20033;-73
2022/03/31 05:53:33;;;;;;;28.20;19.27;;;;;;;4.44;74.73;99014.44;5016125;28;20022;-75
2022/03/31 05:55:59;;;;;;;31.40;20.40;;;;;;;4.42;74.76;99014.16;5015762;28;20026;-75
2022/03/31 05:58:26;;;;;;;36.03;23.30;;;;;;;4.43;74.78;99010.09;5015664;28;20026;-76
2022/03/31 06:00:53;;;;;;;32.85;20.80;;;;;;;4.43;74.72;99010.09;5014797;28;20447;-75
2022/03/31 06:03:23;;;;;;;32.47;21.50;;;;;;;4.46;73.86;99011.16;5015667;28;20056;-75
2022/03/31 06:05:51;;;;;;;35.47;23.23;;;;;;;4.41;74.54;99004.13;5015905;28;20030;-76
2022/03/31 06:08:17;;;;;;;37.50;23.02;;;;;;;4.37;74.52;99014.00;5003515;28;20049;-75
2022/03/31 06:10:43;;;;;;;38.13;23.67;;;;;;;4.31;75.08;99002.56;5014360;28;20064;-76
2022/03/31 06:13:11;;;;;;;40.17;24.48;;;;;;;4.33;75.23;99012.13;5015188;28;20022;-76
2022/03/31 06:15:37;;;;;;;43.90;25.65;;;;;;;4.34;75.11;99015.72;5013951;28;20037;-74
2022/03/31 06:18:07;;;;;;;41.85;25.45;;;;;;;4.41;74.38;99017.44;5014432;28;20475;-74
2022/03/31 06:20:34;;;;;;;42.90;26.00;;;;;;;4.37;74.61;99019.63;4995565;28;20079;-75
2022/03/31 06:23:00;;;;;;;38.17;24.70;;;;;;;4.35;74.52;99026.50;5017336;28;20029;-75
2022/03/31 06:25:26;;;;;;;42.17;26.13;;;;;;;4.35;75.07;99037.78;5016869;28;20029;-76
2022/03/31 06:27:52;;;;;;;43.65;26.13;;;;;;;4.34;74.52;99036.22;5016893;28;20041;-75
2022/03/31 06:30:18;;;;;;;55.30;30.08;;;;;;;4.37;75.04;99028.09;5017562;28;20026;-73
2022/03/31 06:32:52;;;;;;;46.45;27.08;;;;;;;4.45;74.60;99023.69;5016974;28;20037;-75
2022/03/31 06:35:19;;;;;;;38.85;24.83;;;;;;;4.48;73.86;99028.41;5035169;28;20040;-75
2022/03/31 06:37:47;;;;;;;50.47;26.67;;;;;;;4.45;73.64;99018.06;5034856;28;20037;-77
2022/03/31 06:40:15;;;;;;;38.90;22.75;;;;;;;4.46;73.63;99023.22;5000534;28;20033;-77
2022/03/31 06:42:42;;;;;;;40.05;23.90;;;;;;;4.40;73.52;99022.28;5033617;28;20061;-77
2022/03/31 06:45:12;;;;;;;42.63;23.73;;;;;;;4.37;73.70;99031.69;5007011;28;20201;-77
2022/03/31 06:47:41;;;;;;;38.95;24.58;;;;;;;4.47;73.00;99029.66;4985542;28;20132;-76
2022/03/31 06:50:08;;;;;;;44.78;25.30;;;;;;;4.46;72.92;99033.72;5017198;28;20657;-76
2022/03/31 06:52:35;;;;;;;39.05;23.65;;;;;;;4.44;73.84;99031.34;5011004;28;20375;-76
2022/03/31 06:55:02;;;;;;;43.10;23.70;;;;;;;4.49;73.14;99036.38;5025496;28;20053;-75
2022/03/31 06:57:35;;;;;;;42.85;25.63;;;;;;;4.46;72.84;99039.34;4983157;28;20045;-78
2022/03/31 07:00:11;;;;;;;41.50;24.48;;;;;;;4.45;72.73;99044.22;5036032;28;20033;-76
2022/03/31 07:02:36;;;;;;;48.28;27.98;;;;;;;4.46;73.03;99057.06;5016654;28;20061;-76
2022/03/31 07:05:02;;;;;;;43.08;25.77;;;;;;;4.43;73.38;99046.72;5034426;28;20053;-77
2022/03/31 07:07:31;;;;;;;37.10;24.20;;;;;;;4.36;73.47;99035.75;5017047;28;20037;-75
2022/03/31 07:09:57;;;;;;;41.83;23.83;;;;;;;4.37;73.07;99034.50;5039890;28;20029;-76
2022/03/31 07:12:31;;;;;;;50.30;24.85;;;;;;;4.40;72.99;99035.59;5030653;28;20041;-76
2022/03/31 07:15:03;;;;;;;45.55;22.65;;;;;;;4.46;72.63;99023.22;5031561;28;20038;-75
2022/03/31 07:17:28;;;;;;;41.47;24.60;;;;;;;4.42;71.67;99027.47;5033894;28;20053;-76
2022/03/31 07:19:54;;;;;;;38.15;22.58;;;;;;;4.38;72.36;99012.75;5016310;28;20127;-77
2022/03/31 07:22:20;;;;;;;48.80;25.02;;;;;;;4.45;72.47;99024.47;5033746;28;20045;-77
2022/03/31 07:24:46;;;;;;;38.38;22.52;;;;;;;4.46;72.29;99023.22;5049090;28;20025;-76
2022/03/31 07:27:11;;;;;;;46.55;25.05;;;;;;;4.48;72.35;99015.09;5034403;28;20073;-77
2022/03/31 07:29:38;;;;;;;31.75;21.65;;;;;;;4.62;72.38;99016.50;5034080;28;20057;-75
2022/03/31 07:32:04;;;;;;;33.55;20.58;;;;;;;4.64;71.58;99008.34;5016330;28;20083;-76
2022/03/31 07:34:29;;;;;;;41.47;22.48;;;;;;;4.74;71.23;99024.00;5017318;28;20029;-76
2022/03/31 07:36:54;;;;;;;41.15;23.23;;;;;;;4.69;70.54;99019.00;5003712;28;20036;-76
2022/03/31 07:39:20;;;;;;;38.50;21.83;;;;;;;4.75;70.58;99034.03;5039223;28;20033;-75
2022/03/31 07:41:45;;;;;;;38.03;23.15;;;;;;;4.79;70.18;99029.81;5040152;28;20037;-76
2022/03/31 07:44:10;;;;;;;45.65;22.65;;;;;;;4.81;70.12;99037.00;5042927;28;20093;-75
2022/03/31 07:46:36;;;;;;;35.03;20.30;;;;;;;4.86;69.94;99028.72;5042849;28;20048;-76
2022/03/31 07:49:03;;;;;;;33.13;19.70;;;;;;;4.81;70.23;99032.16;5020637;28;20033;-76
2022/03/31 07:51:29;;;;;;;37.92;22.35;;;;;;;4.75;69.76;99037.66;5002652;28;20388;-75
2022/03/31 07:53:56;;;;;;;37.97;21.23;;;;;;;4.71;69.73;99039.84;5037742;28;20040;-75
2022/03/31 07:56:22;;;;;;;38.60;21.60;;;;;;;4.69;70.12;99038.72;5053327;28;20051;-75
2022/03/31 07:58:49;;;;;;;36.55;20.88;;;;;;;4.72;70.46;99046.28;5036323;28;20037;-74
2022/03/31 08:01:16;;;;;;;39.90;22.25;;;;;;;4.82;69.17;99050.66;5002230;28;20168;-75
2022/03/31 08:03:41;;;;;;;39.85;22.00;;;;;;;4.74;70.04;99043.75;5034109;28;20053;-75
2022/03/31 08:06:08;;;;;;;38.92;21.77;;;;;;;4.79;70.32;99045.94;5010182;28;20065;-75
2022/03/31 08:08:38;;;;;;;40.28;21.35;;;;;;;4.89;69.86;99041.06;5016090;28;20026;-75
2022/03/31 08:11:03;;;;;;;35.17;21.15;;;;;;;4.87;69.40;99043.59;5016068;28;20481;-75
2022/03/31 08:13:30;;;;;;;39.45;21.35;;;;;;;4.96;69.08;99035.91;5032884;28;20014;-76
2022/03/31 08:15:58;;;;;;;33.08;20.20;;;;;;;4.99;69.63;99045.44;5015202;28;20034;-75
2022/03/31 08:18:29;;;;;;;46.78;22.80;;;;;;;5.09;69.27;99044.19;5015628;28;20021;-78
2022/03/31 08:20:57;;;;;;;36.37;20.67;;;;;;;5.17;68.34;99045.44;4992540;28;20050;-75
2022/03/31 08:23:25;;;;;;;38.45;20.35;;;;;;;5.16;68.05;99043.88;4992103;28;20029;-76
2022/03/31 08:25:53;;;;;;;39.08;20.65;;;;;;;5.02;68.75;99053.00;4992475;28;20049;-76
2022/03/31 08:28:18;;;;;;;41.15;22.05;;;;;;;5.00;68.95;99061.91;5008696;28;20034;-77
2022/03/31 08:30:46;;;;;;;38.17;21.35;;;;;;;5.08;68.02;99056.75;5002652;28;20116;-77
2022/03/31 08:33:13;;;;;;;34.83;21.38;;;;;;;5.01;68.71;99065.53;5016250;28;20033;-77
2022/03/31 08:35:39;;;;;;;31.20;19.67;;;;;;;4.93;68.98;99067.09;5016031;28;20375;-76
2022/03/31 08:38:04;;;;;;;30.73;18.67;;;;;;;4.89;69.38;99060.81;5009607;28;20041;-76
2022/03/31 08:40:31;;;;;;;32.17;19.50;;;;;;;4.95;68.99;99058.94;5015587;28;20021;-75
2022/03/31 08:42:59;;;;;;;32.83;18.98;;;;;;;4.91;69.03;99061.94;5023140;28;20099;-76
2022/03/31 08:45:26;;;;;;;30.30;18.55;;;;;;;4.94;68.59;99051.72;5025098;28;20036;-77
2022/03/31 08:47:53;;;;;;;45.17;20.83;;;;;;;4.93;69.61;99050.97;5015760;28;20166;-76
2022/03/31 08:50:21;;;;;;;36.58;21.38;;;;;;;5.13;67.98;99047.66;5011592;28;20025;-75
2022/03/31 08:52:48;;;;;;;34.83;19.70;;;;;;;5.13;69.12;99042.00;5027518;28;20029;-76
2022/03/31 08:55:14;;;;;;;37.45;19.83;;;;;;;5.20;68.79;99044.47;5015335;28;20030;-78
2022/03/31 08:57:52;;;;;;;36.97;20.15;;;;;;;5.22;69.15;99039.16;4999088;28;20083;-76
2022/03/31 09:00:33;;;;;;;34.72;19.17;;;;;;;5.28;69.26;99047.78;5011223;28;20030;-76
2022/03/31 09:03:04;;;;;;;36.42;19.05;;;;;;;5.35;68.56;99050.25;5016818;28;20240;-78
2022/03/31 09:05:41;;;;;;;36.38;20.38;;;;;;;5.43;68.45;99049.44;5015603;28;20517;-75
2022/03/31 09:08:16;;;;;;;34.03;18.40;;;;;;;5.52;68.23;99055.09;5003838;28;20399;-76
2022/03/31 09:10:44;;;;;;;31.55;18.35;;;;;;;5.57;67.23;99053.66;5002247;28;20023;-77
2022/03/31 09:13:31;;;;;;;34.60;19.55;;;;;;;5.57;67.30;99068.56;5047904;28;20041;-76
2022/03/31 09:16:02;;;;;;;51.85;29.75;;;;;;;5.57;68.01;99076.25;5016559;28;20056;-77
2022/03/31 09:18:29;;;;;;;37.13;19.15;;;;;;;5.57;67.86;99076.25;5015035;28;20041;-76
2022/03/31 09:20:57;;;;;;;33.83;20.02;;;;;;;5.57;67.56;99074.22;4994873;28;20399;-76
2022/03/31 09:23:44;;;;;;;50.72;21.17;;;;;;;5.61;68.07;99074.81;5028422;28;20027;-78
2022/03/31 09:26:13;;;;;;;39.13;19.67;;;;;;;5.68;67.03;99059.56;4996304;28;20026;-76
2022/03/31 09:28:41;;;;;;;40.05;20.38;;;;;;;5.79;67.02;99053.41;4995220;28;20423;-76
2022/03/31 09:31:10;;;;;;;46.72;19.10;;;;;;;5.79;66.49;99059.03;4995208;28;20160;-77
2022/03/31 09:33:39;;;;;;;36.33;20.70;;;;;;;5.84;66.14;99058.41;4979331;28;20022;-77
2022/03/31 09:36:16;;;;;;;49.97;22.75;;;;;;;5.75;66.27;99059.22;4996816;28;20034;-77
2022/03/31 09:38:51;;;;;;;45.72;21.90;;;;;;;5.65;66.80;99055.66;4995567;28;20388;-77
2022/03/31 09:41:36;;;;;;;59.72;23.15;;;;;;;5.74;66.38;99059.69;4996365;28;20105;-77
2022/03/31 09:44:05;;;;;;;40.83;20.75;;;;;;;5.64;66.74;99054.09;4996524;28;20137;-77
2022/03/31 09:46:38;;;;;;;40.90;22.63;;;;;;;5.69;66.45;99049.03;4996459;28;20030;-77
2022/03/31 09:49:30;;;;;;;37.05;21.90;;;;;;;5.57;66.62;99042.34;4996542;28;20034;-77
2022/03/31 09:52:06;;;;;;;37.83;21.00;;;;;;;5.47;66.96;99024.66;4993269;28;20046;-78
2022/03/31 09:54:33;;;;;;;41.78;22.05;;;;;;;5.67;66.61;99040.28;4978693;28;20022;-78
2022/03/31 09:57:03;;;;;;;37.33;22.38;;;;;;;5.85;66.63;99043.81;4995148;28;20037;-77
2022/03/31 09:59:32;;;;;;;35.53;22.33;;;;;;;5.93;66.26;99047.09;4978452;28;20418;-77
2022/03/31 10:02:00;;;;;;;41.72;23.23;;;;;;;6.00;65.32;99046.75;4996108;28;20037;-78
2022/03/31 10:04:34;;;;;;;37.55;21.27;;;;;;;6.02;66.51;99052.69;4994459;28;20018;-77
2022/03/31 10:07:00;;;;;;;42.58;23.08;;;;;;;6.06;65.90;99050.50;4996095;28;20119;-76
2022/03/31 10:09:26;;;;;;;39.63;22.80;;;;;;;6.19;65.90;99047.41;4994981;28;20030;-77
2022/03/31 10:12:15;;;;;;;35.50;22.27;;;;;;;6.34;65.06;99026.44;4994614;28;20057;-76
2022/03/31 10:14:53;;;;;;;43.35;24.30;;;;;;;6.38;64.46;99031.91;5011134;28;20034;-77
2022/03/31 10:17:25;;;;;;;38.40;23.48;;;;;;;6.38;64.30;99029.06;4995168;28;20030;-78
2022/03/31 10:19:50;;;;;;;41.03;22.90;;;;;;;6.39;64.34;99022.94;5010090;28;20042;-77
2022/03/31 10:25:05;;;;;;;46.80;25.15;;;;;;;6.47;64.75;99034.66;5039084;28;20061;-76
2022/03/31 10:27:34;;;;;;;40.45;22.58;;;;;;;6.47;64.61;99032.63;5028052;28;20076;-75
2022/03/31 10:30:14;;;;;;;48.45;25.60;;;;;;;6.46;64.10;99024.63;4996599;28;20037;-77
2022/03/31 10:33:03;;;;;;;46.95;25.35;;;;;;;6.39;65.14;99019.34;5047470;28;20056;-77
2022/03/31 10:35:41;;;;;;;69.22;34.72;;;;;;;6.29;64.45;99020.66;5027554;28;20037;-75
2022/03/31 10:38:19;;;;;;;41.15;23.73;;;;;;;6.29;65.44;99021.44;5039719;28;20049;-76
2022/03/31 10:40:50;;;;;;;63.65;29.98;;;;;;;6.27;64.65;99017.53;5052343;28;20467;-74
2022/03/31 10:43:46;;;;;;;47.85;28.40;;;;;;;6.20;64.79;99015.06;5016978;28;20449;-77
2022/03/31 10:46:32;;;;;;;39.95;22.63;;;;;;;6.00;64.93;98976.09;4999946;28;20037;-76
2022/03/31 10:49:17;;;;;;;46.10;24.05;;;;;;;6.14;64.85;99000.81;5049781;28;20034;-76
2022/03/31 10:51:45;;;;;;;37.83;21.48;;;;;;;6.14;66.22;99012.13;5032853;28;20382;-76
2022/03/31 10:54:23;;;;;;;40.53;24.15;;;;;;;6.17;65.50;99002.66;5032263;28;20026;-77
2022/03/31 10:56:48;;;;;;;32.33;20.23;;;;;;;6.23;65.58;98992.25;5049722;28;20040;-76
2022/03/31 10:59:15;;;;;;;42.22;23.45;;;;;;;6.32;65.38;98991.41;5017037;28;20025;-75
2022/03/31 11:01:41;;;;;;;44.85;23.25;;;;;;;6.33;65.10;98993.75;5049245;28;20097;-76
2022/03/31 11:04:10;;;;;;;40.17;22.92;;;;;;;6.37;65.77;98983.03;5032919;28;20398;-77
2022/03/31 11:07:04;;;;;;;44.53;24.42;;;;;;;6.55;64.94;98987.00;5033252;28;20033;-78
2022/03/31 11:09:31;;;;;;;42.95;24.23;;;;;;;6.60;64.78;98980.69;5017280;28;20087;-76
2022/03/31 11:11:59;;;;;;;36.97;23.23;;;;;;;6.66;64.53;98975.91;5034300;28;20067;-76
2022/03/31 11:14:34;;;;;;;48.78;24.17;;;;;;;6.78;63.75;98975.63;5016076;28;20056;-76
2022/03/31 11:16:59;;;;;;;45.80;24.65;;;;;;;6.79;63.95;98987.72;5049522;28;20386;-76
2022/03/31 11:19:36;;;;;;;52.95;26.23;;;;;;;6.83;63.36;98994.75;5015460;28;20509;-74
2022/03/31 11:22:02;;;;;;;59.85;25.85;;;;;;;6.83;63.01;98989.09;5033479;28;20049;-75
2022/03/31 11:24:30;;;;;;;46.13;26.42;;;;;;;6.66;63.91;98978.75;5034000;28;20029;-75
2022/03/31 11:27:04;;;;;;;41.72;25.23;;;;;;;6.66;64.09;98987.22;4999780;28;20025;-77
2022/03/31 11:29:30;;;;;;;47.80;25.00;;;;;;;6.59;64.51;98979.91;5001096;28;20023;-76
2022/03/31 11:31:56;;;;;;;41.53;24.63;;;;;;;6.53;64.60;98983.88;5034225;28;20090;-77
2022/03/31 11:34:27;;;;;;;51.53;27.08;;;;;;;6.55;64.49;98984.19;5033373;28;20033;-75
2022/03/31 11:36:55;;;;;;;43.65;27.45;;;;;;;6.48;65.01;98979.66;5032152;28;20372;-75